Time;durP1;ratioP1;P1;durP2;ratioP2;P2;SDS_P1;SDS_P2;PMS_P1;PMS_P2;Temp;Humidity;BMP_temperature;BMP_pressure;BME280_temperature;BME280_humidity;BME280_pressure;Samples;Min_cycle;Max_cycle;Signal;HPM_P1;HPM_P2
2022/11/29 00:01:46;;;;;;;14.07;8.73;;;26.40;99.90;;;;;;1852839;76;21158;-83
2022/11/29 00:04:17;;;;;;;10.78;7.95;;;26.40;99.90;;;;;;1861888;76;21084;-84
2022/11/29 00:06:48;;;;;;;12.23;8.23;;;26.40;99.90;;;;;;1854746;76;21201;-84
2022/11/29 00:09:21;;;;;;;11.53;7.70;;;26.50;99.90;;;;;;1828431;77;21111;-85
2022/11/29 00:12:14;;;;;;;14.58;8.45;;;26.50;99.90;;;;;;1814281;78;21112;-85
2022/11/29 00:14:45;;;;;;;14.20;9.20;;;26.50;99.90;;;;;;1820928;77;21161;-84
2022/11/29 00:17:16;;;;;;;14.10;8.15;;;26.60;99.90;;;;;;1837840;76;21217;-83
2022/11/29 00:19:47;;;;;;;15.58;8.80;;;26.60;99.90;;;;;;1842295;76;21162;-69
2022/11/29 00:22:18;;;;;;;16.48;8.63;;;26.60;99.90;;;;;;1873386;76;21722;-69
2022/11/29 00:24:50;;;;;;;20.12;9.05;;;26.60;99.90;;;;;;1842682;76;21192;-70
2022/11/29 00:27:21;;;;;;;14.43;8.68;;;26.60;99.90;;;;;;1826670;78;21153;-70
2022/11/29 00:29:53;;;;;;;14.07;10.05;;;26.60;99.90;;;;;;1859360;76;21666;-70
2022/11/29 00:32:24;;;;;;;15.48;9.60;;;26.70;99.90;;;;;;1837356;76;21429;-70
2022/11/29 00:34:55;;;;;;;13.30;9.20;;;26.70;99.90;;;;;;1847077;76;21252;-71
2022/11/29 00:37:27;;;;;;;16.10;9.90;;;26.70;99.90;;;;;;1868610;76;21181;-70
2022/11/29 00:39:58;;;;;;;14.00;8.25;;;26.70;99.90;;;;;;1859130;76;21086;-70
2022/11/29 00:42:29;;;;;;;14.98;8.58;;;26.80;99.90;;;;;;1851867;76;21192;-71
2022/11/29 00:45:00;;;;;;;11.53;8.15;;;26.80;99.90;;;;;;1861937;76;21079;-69
2022/11/29 00:47:31;;;;;;;15.68;8.45;;;26.80;99.90;;;;;;1842075;76;21649;-70
2022/11/29 00:50:02;;;;;;;16.00;8.40;;;26.90;99.90;;;;;;1871658;76;21133;-71
2022/11/29 00:52:34;;;;;;;12.70;7.80;;;26.90;99.90;;;;;;1863992;76;21200;-71
2022/11/29 00:55:05;;;;;;;14.47;7.67;;;26.90;99.90;;;;;;1830301;76;21201;-71
2022/11/29 00:57:36;;;;;;;16.10;8.18;;;26.90;99.90;;;;;;1852622;76;21192;-72
2022/11/29 01:00:10;;;;;;;16.57;8.43;;;26.90;99.90;;;;;;1858592;76;21532;-70
2022/11/29 01:02:44;;;;;;;17.75;9.30;;;27.00;99.90;;;;;;1859913;76;21630;-72
2022/11/29 01:05:16;;;;;;;13.72;8.50;;;27.00;99.90;;;;;;1845508;77;21566;-72
2022/11/29 01:07:47;;;;;;;13.30;7.87;;;27.10;99.90;;;;;;1852191;75;21606;-73
2022/11/29 01:10:22;;;;;;;10.53;7.67;;;27.10;99.90;;;;;;1820860;77;21253;-71
2022/11/29 01:12:53;;;;;;;16.35;8.38;;;27.10;99.90;;;;;;1881399;74;21193;-72
2022/11/29 01:15:24;;;;;;;14.80;8.53;;;27.20;99.90;;;;;;1812488;77;21157;-71
2022/11/29 01:17:58;;;;;;;15.90;8.95;;;27.20;99.90;;;;;;1825289;76;21160;-72
2022/11/29 01:20:31;;;;;;;14.87;8.85;;;27.30;99.90;;;;;;1859189;76;21186;-71
2022/11/29 01:23:03;;;;;;;12.28;9.28;;;27.30;99.90;;;;;;1855224;76;21585;-72
2022/11/29 01:25:38;;;;;;;;;;;27.40;99.90;;;;;;1831618;78;21091;-73
2022/11/29 01:28:09;;;;;;;16.20;8.50;;;27.40;99.90;;;;;;1833577;77;20448;-72
2022/11/29 01:30:40;;;;;;;15.75;7.95;;;27.40;99.90;;;;;;1854098;76;21166;-71
2022/11/29 01:33:12;;;;;;;16.23;7.60;;;27.50;99.90;;;;;;1817564;76;21588;-73
2022/11/29 01:35:48;;;;;;;13.75;7.53;;;27.50;99.80;;;;;;1838610;76;21078;-73
2022/11/29 01:38:20;;;;;;;12.13;8.10;;;27.50;99.70;;;;;;1867555;74;21784;-73
2022/11/29 01:41:11;;;;;;;13.20;7.40;;;27.60;99.50;;;;;;1842657;76;21100;-72
2022/11/29 01:44:00;;;;;;;13.68;8.08;;;27.60;99.50;;;;;;1847962;75;21446;-72
2022/11/29 01:46:33;;;;;;;11.88;6.60;;;27.70;99.40;;;;;;1836159;76;21633;-73
2022/11/29 01:49:21;;;;;;;10.30;6.47;;;27.70;99.00;;;;;;1837620;76;21187;-73
2022/11/29 01:51:58;;;;;;;13.40;6.85;;;27.80;99.00;;;;;;1848929;76;21091;-74
2022/11/29 01:54:31;;;;;;;11.65;7.62;;;27.80;98.90;;;;;;1850330;76;21664;-73
2022/11/29 01:57:04;;;;;;;10.60;6.67;;;27.80;98.80;;;;;;1866730;76;21142;-72
2022/11/29 01:59:39;;;;;;;11.63;7.28;;;27.90;98.70;;;;;;1830143;76;21196;-73
2022/11/29 02:02:13;;;;;;;11.03;7.30;;;28.00;98.50;;;;;;1849479;76;21217;-74
2022/11/29 02:04:46;;;;;;;10.03;7.03;;;28.10;98.50;;;;;;1860471;76;21112;-73
2022/11/29 02:07:18;;;;;;;12.03;6.80;;;28.10;98.40;;;;;;1871678;74;21107;-73
2022/11/29 02:09:49;;;;;;;11.63;6.92;;;28.20;98.30;;;;;;1784026;78;21565;-72
2022/11/29 02:12:48;;;;;;;13.22;7.30;;;28.30;98.20;;;;;;1833999;76;21209;-73
2022/11/29 02:15:44;;;;;;;10.82;6.47;;;28.30;98.20;;;;;;1859261;76;21131;-72
2022/11/29 02:18:20;;;;;;;14.50;6.35;;;28.40;97.80;;;;;;1840005;76;21681;-72
2022/11/29 02:21:03;;;;;;;10.80;6.35;;;28.50;97.50;;;;;;1797457;78;22210;-72
2022/11/29 02:23:39;;;;;;;7.58;4.92;;;28.50;97.30;;;;;;1773459;79;21186;-73
2022/11/29 02:26:32;;;;;;;14.78;6.33;;;28.60;96.40;;;;;;1773760;79;21807;-72
2022/11/29 02:29:28;;;;;;;11.22;6.28;;;28.60;96.30;;;;;;1834034;76;21653;-72
2022/11/29 02:32:02;;;;;;;11.25;6.03;;;28.70;96.00;;;;;;1827101;77;21717;-72
2022/11/29 02:34:55;;;;;;;11.57;6.85;;;28.80;96.00;;;;;;1838151;76;21169;-72
2022/11/29 02:37:59;;;;;;;11.68;6.67;;;28.80;95.90;;;;;;1844894;76;21653;-73
2022/11/29 02:40:42;;;;;;;11.68;6.00;;;28.90;95.60;;;;;;1859066;76;21130;-73
2022/11/29 02:43:27;;;;;;;8.18;5.65;;;29.00;95.50;;;;;;1842347;76;21202;-72
2022/11/29 02:46:00;;;;;;;9.10;6.08;;;29.10;95.40;;;;;;1867048;75;21166;-72
2022/11/29 02:48:43;;;;;;;11.50;6.28;;;29.20;95.30;;;;;;1775691;78;21160;-71
2022/11/29 02:51:19;;;;;;;10.90;6.10;;;29.30;95.00;;;;;;1798200;78;21651;-73
2022/11/29 02:53:55;;;;;;;12.07;7.37;;;29.30;94.70;;;;;;1837617;76;21566;-73
2022/11/29 02:56:31;;;;;;;11.30;5.67;;;29.40;94.80;;;;;;1803194;77;21196;-73
2022/11/29 02:59:39;;;;;;;7.08;5.50;;;29.50;94.50;;;;;;1798720;78;21077;-72
2022/11/29 03:02:36;;;;;;;9.28;5.80;;;29.60;94.40;;;;;;1838038;77;21150;-73
2022/11/29 03:05:33;;;;;;;12.35;5.05;;;29.70;94.10;;;;;;1822566;77;21535;-72
2022/11/29 03:08:27;;;;;;;8.63;5.22;;;29.80;94.10;;;;;;1854138;76;21611;-71
2022/11/29 03:11:16;;;;;;;9.03;5.67;;;29.90;93.40;;;;;;1864874;76;21111;-72
2022/11/29 03:14:09;;;;;;;10.38;5.85;;;30.00;93.30;;;;;;1859733;75;21088;-72
2022/11/29 03:17:02;;;;;;;6.75;4.95;;;30.20;93.40;;;;;;1849879;75;21185;-73
2022/11/29 03:19:51;;;;;;;10.63;5.70;;;30.20;92.80;;;;;;1841620;76;21202;-73
2022/11/29 03:22:36;;;;;;;10.98;5.58;;;30.30;92.70;;;;;;1850304;76;21114;-73
2022/11/29 03:25:18;;;;;;;10.15;5.70;;;30.40;92.40;;;;;;1851141;76;21842;-73
2022/11/29 03:27:52;;;;;;;7.67;5.37;;;30.40;92.50;;;;;;1840792;75;21197;-73
2022/11/29 03:30:23;;;;;;;9.55;6.03;;;30.50;92.20;;;;;;1870343;75;21115;-73
2022/11/29 03:33:17;;;;;;;7.80;5.35;;;30.40;92.40;;;;;;1813817;78;21289;-73
2022/11/29 03:36:05;;;;;;;9.33;6.25;;;30.40;92.30;;;;;;1833061;76;21166;-72
2022/11/29 03:38:43;;;;;;;13.95;7.17;;;30.30;92.60;;;;;;1844869;76;21181;-71
2022/11/29 03:41:24;;;;;;;12.33;6.22;;;30.20;92.50;;;;;;1868754;76;21079;-71
2022/11/29 03:44:16;;;;;;;9.58;6.03;;;30.20;92.60;;;;;;1860294;75;21276;-71
2022/11/29 03:46:58;;;;;;;15.30;7.33;;;30.20;92.70;;;;;;1845307;76;21066;-72
2022/11/29 03:49:56;;;;;;;7.50;5.17;;;30.20;93.10;;;;;;1829033;76;21217;-73
2022/11/29 03:52:52;;;;;;;9.55;5.15;;;30.30;92.40;;;;;;1818318;77;21642;-72
2022/11/29 03:55:42;;;;;;;8.90;5.85;;;30.50;92.50;;;;;;1857005;76;21104;-73
2022/11/29 03:58:33;;;;;;;8.63;5.25;;;30.70;91.80;;;;;;1812432;77;21641;-72
2022/11/29 04:01:22;;;;;;;10.65;6.10;;;30.90;91.30;;;;;;1797559;79;21453;-72
2022/11/29 04:04:26;;;;;;;9.25;6.03;;;31.00;91.30;;;;;;1863710;76;21115;-72
2022/11/29 04:07:05;;;;;;;10.50;5.83;;;31.00;91.00;;;;;;1850409;76;21209;-72
2022/11/29 04:09:58;;;;;;;7.03;4.75;;;30.80;91.20;;;;;;1869216;75;21258;-73
2022/11/29 04:12:53;;;;;;;8.98;5.83;;;30.70;91.30;;;;;;1867753;76;21119;-73
2022/11/29 04:15:38;;;;;;;8.18;5.17;;;30.60;91.90;;;;;;1810279;77;21146;-72
2022/11/29 04:18:11;;;;;;;17.87;10.45;;;30.50;92.00;;;;;;1842359;75;21131;-73
2022/11/29 04:21:06;;;;;;;8.30;6.00;;;30.40;92.10;;;;;;1875627;76;21126;-73
2022/11/29 04:24:04;;;;;;;9.53;5.60;;;30.40;92.20;;;;;;1848645;76;21162;-72
2022/11/29 04:27:05;;;;;;;9.20;5.95;;;30.30;92.30;;;;;;1858732;76;21212;-72
2022/11/29 04:29:57;;;;;;;9.48;5.67;;;30.20;92.20;;;;;;1865468;76;21629;-73
2022/11/29 04:32:59;;;;;;;8.78;5.50;;;30.20;92.30;;;;;;1860161;76;21184;-74
2022/11/29 04:35:49;;;;;;;9.08;5.92;;;30.20;92.50;;;;;;1854612;76;21134;-73
2022/11/29 04:38:29;;;;;;;12.78;6.37;;;30.30;92.20;;;;;;1839218;76;21251;-73
2022/11/29 04:41:26;;;;;;;8.63;5.55;;;30.30;92.10;;;;;;1845046;76;21145;-72
2022/11/29 04:44:15;;;;;;;12.63;5.72;;;30.50;91.90;;;;;;1867709;76;21593;-72
2022/11/29 04:46:51;;;;;;;7.12;4.80;;;30.60;91.70;;;;;;1858071;76;21184;-72
2022/11/29 04:49:47;;;;;;;6.67;4.65;;;30.80;91.40;;;;;;1847083;76;21247;-74
2022/11/29 04:52:32;;;;;;;7.05;3.70;;;31.10;91.00;;;;;;1852715;76;21141;-73
2022/11/29 04:55:05;;;;;;;5.90;4.05;;;31.30;90.30;;;;;;1861206;75;21162;-73
2022/11/29 04:57:39;;;;;;;6.30;3.83;;;31.60;89.80;;;;;;1845504;75;22478;-74
2022/11/29 05:00:12;;;;;;;7.28;4.30;;;31.70;88.40;;;;;;1815694;76;21520;-73
2022/11/29 05:02:58;;;;;;;8.20;3.60;;;31.90;87.70;;;;;;1832438;76;21621;-73
2022/11/29 05:05:40;;;;;;;6.47;3.65;;;32.10;87.30;;;;;;1858803;75;21614;-74
2022/11/29 05:08:31;;;;;;;6.53;4.47;;;32.30;87.10;;;;;;1859434;76;21141;-72
2022/11/29 05:11:17;;;;;;;6.22;3.95;;;32.40;86.40;;;;;;1796846;77;21493;-73
2022/11/29 05:13:51;;;;;;;6.67;4.65;;;32.50;86.20;;;;;;1819186;76;21103;-74
2022/11/29 05:16:44;;;;;;;9.05;4.45;;;32.70;84.00;;;;;;1864983;76;21272;-73
2022/11/29 05:19:51;;;;;;;7.92;4.62;;;32.80;83.20;;;;;;1870054;76;21143;-73
2022/11/29 05:22:42;;;;;;;5.12;3.95;;;32.90;84.10;;;;;;1846520;76;21232;-73
2022/11/29 05:25:16;;;;;;;7.15;4.10;;;33.00;82.50;;;;;;1836247;76;21122;-73
2022/11/29 05:28:05;;;;;;;7.05;4.35;;;33.10;82.40;;;;;;1847536;76;21127;-72
2022/11/29 05:30:55;;;;;;;6.20;3.70;;;33.00;82.80;;;;;;1849158;76;21217;-74
2022/11/29 05:34:01;;;;;;;7.78;4.28;;;32.90;82.90;;;;;;1823506;78;21098;-72
2022/11/29 05:37:04;;;;;;;8.43;5.55;;;32.80;83.20;;;;;;1844601;76;22159;-73
2022/11/29 05:39:43;;;;;;;6.97;5.42;;;32.70;83.60;;;;;;1837992;77;21125;-73
2022/11/29 05:42:29;;;;;;;6.28;4.65;;;32.50;84.20;;;;;;1851081;76;21626;-73
2022/11/29 05:45:03;;;;;;;7.83;5.25;;;32.40;84.30;;;;;;1838994;76;21603;-73
2022/11/29 05:47:39;;;;;;;6.70;4.50;;;32.20;85.30;;;;;;1850005;76;21676;-72
2022/11/29 05:50:13;;;;;;;8.53;5.30;;;32.00;85.30;;;;;;1837642;76;21095;-73
2022/11/29 05:52:53;;;;;;;7.28;4.85;;;31.80;86.30;;;;;;1854163;76;21196;-74
2022/11/29 05:55:52;;;;;;;8.30;5.08;;;31.60;86.70;;;;;;1866385;76;21730;-73
2022/11/29 05:58:32;;;;;;;9.18;6.85;;;31.50;87.30;;;;;;1852116;75;21213;-73
2022/11/29 06:01:23;;;;;;;9.55;5.62;;;31.40;87.40;;;;;;1850736;76;21994;-73
2022/11/29 06:04:05;;;;;;;8.45;5.87;;;31.30;87.50;;;;;;1845326;75;21106;-73
2022/11/29 06:06:40;;;;;;;10.65;7.50;;;31.30;88.00;;;;;;1841424;76;21570;-73
2022/11/29 06:09:23;;;;;;;7.50;4.62;;;31.20;88.10;;;;;;1853807;76;21198;-74
2022/11/29 06:12:15;;;;;;;5.92;4.50;;;31.20;87.90;;;;;;1830853;76;21139;-73
2022/11/29 06:15:09;;;;;;;7.37;4.60;;;31.10;87.00;;;;;;1831353;77;21239;-72
2022/11/29 06:17:59;;;;;;;6.35;5.25;;;31.10;87.10;;;;;;1851025;76;21165;-73
2022/11/29 06:20:48;;;;;;;11.33;6.72;;;31.00;87.70;;;;;;1874875;76;21246;-74
2022/11/29 06:23:41;;;;;;;8.93;5.30;;;31.00;89.00;;;;;;1864546;76;21176;-73
2022/11/29 06:26:22;;;;;;;8.43;5.60;;;31.00;89.50;;;;;;1826453;77;21141;-73
2022/11/29 06:29:06;;;;;;;8.18;4.72;;;31.00;89.50;;;;;;1842812;76;21138;-73
2022/11/29 06:31:43;;;;;;;9.08;4.75;;;31.00;90.00;;;;;;1857464;76;21176;-71
2022/11/29 06:34:25;;;;;;;6.62;4.47;;;30.90;90.10;;;;;;1845679;76;21154;-73
2022/11/29 06:37:26;;;;;;;6.08;4.28;;;30.90;90.10;;;;;;1818893;78;21231;-73
2022/11/29 06:40:00;;;;;;;5.42;4.00;;;30.80;90.00;;;;;;1836306;76;21150;-73
2022/11/29 06:42:31;;;;;;;6.22;4.22;;;30.90;89.20;;;;;;1853517;76;21127;-74
2022/11/29 06:45:02;;;;;;;7.92;5.42;;;31.10;89.20;;;;;;1856165;76;21158;-73
2022/11/29 06:47:51;;;;;;;9.10;4.30;;;31.20;88.60;;;;;;1859654;75;21126;-73
2022/11/29 06:50:24;;;;;;;7.50;4.87;;;31.40;86.70;;;;;;1832894;76;21205;-73
2022/11/29 06:53:04;;;;;;;6.40;4.87;;;31.60;85.60;;;;;;1819595;77;21243;-72
2022/11/29 06:56:05;;;;;;;8.65;4.30;;;31.70;86.00;;;;;;1862560;76;21112;-72
2022/11/29 06:58:48;;;;;;;8.80;4.08;;;32.00;86.10;;;;;;1851618;75;21209;-73
2022/11/29 07:01:41;;;;;;;6.80;4.58;;;32.10;85.60;;;;;;1850074;76;21198;-73
2022/11/29 07:04:38;;;;;;;7.65;4.83;;;32.20;85.60;;;;;;1846773;76;21182;-73
2022/11/29 07:07:22;;;;;;;8.03;3.90;;;32.20;84.80;;;;;;1830168;77;21154;-71
2022/11/29 07:09:59;;;;;;;5.95;3.62;;;32.30;84.50;;;;;;1821276;76;21633;-72
2022/11/29 07:12:41;;;;;;;7.12;4.20;;;32.40;84.40;;;;;;1827261;76;21155;-73
2022/11/29 07:15:15;;;;;;;7.17;4.12;;;32.40;84.30;;;;;;1800918;79;21151;-73
2022/11/29 07:18:00;;;;;;;7.83;4.03;;;32.50;84.40;;;;;;1831433;76;21112;-73
2022/11/29 07:20:51;;;;;;;6.78;3.85;;;32.60;83.70;;;;;;1836485;76;21157;-73
2022/11/29 07:23:36;;;;;;;7.28;4.10;;;32.60;82.40;;;;;;1806065;78;21094;-72
2022/11/29 07:26:21;;;;;;;5.62;3.40;;;32.60;82.40;;;;;;1802987;78;21248;-72
2022/11/29 07:29:03;;;;;;;6.17;3.52;;;32.50;82.90;;;;;;1872862;74;21677;-73
2022/11/29 07:31:59;;;;;;;5.65;3.62;;;32.60;82.50;;;;;;1864653;76;21172;-73
2022/11/29 07:34:45;;;;;;;5.87;3.80;;;32.60;81.90;;;;;;1844479;76;21626;-73
2022/11/29 07:37:34;;;;;;;7.15;4.10;;;32.60;82.00;;;;;;1838428;76;21175;-73
2022/11/29 07:40:16;;;;;;;4.75;3.98;;;32.60;82.80;;;;;;1838435;75;21185;-73
2022/11/29 07:42:52;;;;;;;8.23;3.95;;;32.60;82.80;;;;;;1847534;75;21202;-74
2022/11/29 07:45:30;;;;;;;6.55;4.10;;;32.60;82.90;;;;;;1851520;76;21077;-74
2022/11/29 07:48:01;;;;;;;6.28;4.33;;;32.60;84.40;;;;;;1868579;75;21148;-75
2022/11/29 07:50:38;;;;;;;6.08;4.97;;;32.60;83.00;;;;;;1867179;76;21125;-73
2022/11/29 07:53:20;;;;;;;8.08;4.15;;;32.60;82.90;;;;;;1869863;76;21167;-72
2022/11/29 07:55:51;;;;;;;8.53;4.70;;;32.60;82.70;;;;;;1820234;78;21164;-73
2022/11/29 07:58:22;;;;;;;8.30;4.45;;;32.60;82.80;;;;;;1846987;76;21201;-72
2022/11/29 08:00:53;;;;;;;5.95;3.60;;;32.50;81.80;;;;;;1862810;76;21201;-72
2022/11/29 08:03:24;;;;;;;6.83;3.90;;;32.50;81.30;;;;;;1798965;79;21121;-72
2022/11/29 08:05:56;;;;;;;5.85;3.60;;;32.40;81.70;;;;;;1796174;79;21073;-72
2022/11/29 08:08:31;;;;;;;6.65;4.05;;;32.50;82.10;;;;;;1836955;76;21603;-72
2022/11/29 08:11:02;;;;;;;4.95;3.70;;;32.50;82.30;;;;;;1859797;76;21144;-71
2022/11/29 08:13:37;;;;;;;5.72;4.20;;;32.50;81.90;;;;;;1858986;75;21158;-72
2022/11/29 08:16:09;;;;;;;4.47;3.47;;;32.60;80.50;;;;;;1842954;76;21621;-72
2022/11/29 08:18:40;;;;;;;4.62;3.37;;;32.50;81.00;;;;;;1837605;76;21253;-71
2022/11/29 08:21:19;;;;;;;6.85;3.02;;;32.50;81.10;;;;;;1807783;78;21641;-72
2022/11/29 08:23:54;;;;;;;5.28;3.72;;;32.50;81.10;;;;;;1835083;77;21611;-72
2022/11/29 08:26:25;;;;;;;7.22;3.67;;;32.60;81.40;;;;;;1867043;75;21076;-72
2022/11/29 08:28:58;;;;;;;6.20;3.85;;;32.60;80.30;;;;;;1857590;76;21188;-72
2022/11/29 08:31:30;;;;;;;6.50;3.77;;;32.60;79.70;;;;;;1821058;76;21575;-71
2022/11/29 08:34:01;;;;;;;6.87;4.37;;;32.70;80.70;;;;;;1866268;76;21155;-72
2022/11/29 08:36:32;;;;;;;4.28;3.65;;;32.80;79.70;;;;;;1841350;75;21862;-72
2022/11/29 08:39:07;;;;;;;6.08;4.12;;;32.80;79.30;;;;;;1809962;78;21670;-72
2022/11/29 08:41:45;;;;;;;8.30;3.20;;;32.90;78.80;;;;;;1833565;77;21162;-72
2022/11/29 08:44:20;;;;;;;4.67;3.20;;;32.80;77.40;;;;;;1820854;76;21904;-72
2022/11/29 08:50:02;;;;;;;6.33;3.08;;;32.70;78.50;;;;;;1838030;76;22108;-72
2022/11/29 08:55:26;;;;;;;4.92;3.15;;;32.60;81.40;;;;;;1829939;77;21171;-74
2022/11/29 08:58:14;;;;;;;9.63;2.90;;;32.60;81.80;;;;;;1811436;77;21819;-71
2022/11/29 09:00:49;;;;;;;5.20;3.37;;;32.50;81.00;;;;;;1818558;77;21119;-72
2022/11/29 09:06:15;;;;;;;5.00;3.22;;;32.40;80.80;;;;;;1862225;76;21764;-71
2022/11/29 09:08:47;;;;;;;4.30;3.45;;;32.30;81.50;;;;;;1893881;75;21333;-71
2022/11/29 09:11:21;;;;;;;4.15;3.15;;;32.20;81.80;;;;;;1864753;75;21088;-73
2022/11/29 09:13:54;;;;;;;8.45;3.62;;;32.20;82.60;;;;;;1860299;76;21231;-72
2022/11/29 09:16:27;;;;;;;4.97;3.00;;;32.10;83.00;;;;;;1829855;77;21181;-72
2022/11/29 09:18:59;;;;;;;7.20;3.40;;;32.10;83.40;;;;;;1862861;75;21236;-71
2022/11/29 09:21:32;;;;;;;6.62;3.70;;;32.10;83.70;;;;;;1844166;76;21208;-71
2022/11/29 09:24:09;;;;;;;5.60;3.20;;;32.00;84.10;;;;;;1874821;76;21088;-72
2022/11/29 09:26:40;;;;;;;6.12;3.87;;;32.00;84.30;;;;;;1853415;76;21252;-72
2022/11/29 09:29:12;;;;;;;4.80;3.33;;;31.90;84.00;;;;;;1861569;76;21088;-72
2022/11/29 09:31:47;;;;;;;10.28;3.92;;;31.90;83.60;;;;;;1841736;76;21216;-71
2022/11/29 09:34:20;;;;;;;10.13;3.67;;;31.90;83.60;;;;;;1868932;76;21656;-70
2022/11/29 09:36:53;;;;;;;8.58;4.20;;;31.90;82.60;;;;;;1871251;76;21253;-71
2022/11/29 09:39:25;;;;;;;8.15;3.70;;;31.90;82.40;;;;;;1868692;76;21174;-72
2022/11/29 09:42:13;;;;;;;9.00;4.00;;;31.90;82.70;;;;;;1805640;78;21221;-72
2022/11/29 09:44:55;;;;;;;6.08;4.20;;;31.80;82.80;;;;;;1843184;77;21133;-73
2022/11/29 09:47:43;;;;;;;6.47;3.70;;;31.80;82.90;;;;;;1844672;76;21131;-72
2022/11/29 09:50:35;;;;;;;6.42;3.75;;;31.80;83.30;;;;;;1838105;76;21153;-72
2022/11/29 09:53:33;;;;;;;7.55;3.62;;;31.80;83.20;;;;;;1874145;76;21543;-72
2022/11/29 09:56:16;;;;;;;7.25;3.55;;;31.70;83.40;;;;;;1866019;76;21265;-73
2022/11/29 09:58:51;;;;;;;6.97;3.65;;;31.70;83.40;;;;;;1838189;75;21118;-72
2022/11/29 10:01:41;;;;;;;8.20;4.03;;;31.60;83.70;;;;;;1831365;76;21261;-73
2022/11/29 10:04:20;;;;;;;7.05;3.67;;;31.60;83.80;;;;;;1864773;75;21265;-72
2022/11/29 10:06:59;;;;;;;7.78;3.60;;;31.60;84.30;;;;;;1847362;76;21227;-73
2022/11/29 10:09:45;;;;;;;4.22;3.30;;;31.50;84.20;;;;;;1833787;75;21715;-74
2022/11/29 10:12:34;;;;;;;6.53;4.05;;;31.40;84.20;;;;;;1835569;77;21181;-72
2022/11/29 10:15:15;;;;;;;7.58;3.90;;;31.40;84.20;;;;;;1829142;78;21575;-71
2022/11/29 10:17:51;;;;;;;8.55;4.60;;;31.30;84.70;;;;;;1837398;77;21173;-72
2022/11/29 10:20:28;;;;;;;10.53;4.35;;;31.30;84.70;;;;;;1834577;77;21154;-72
2022/11/29 10:23:03;;;;;;;9.73;4.45;;;31.30;84.90;;;;;;1798585;77;21141;-70
2022/11/29 10:25:51;;;;;;;7.20;4.50;;;31.30;85.10;;;;;;1837071;77;21154;-71
2022/11/29 10:28:24;;;;;;;9.45;4.30;;;31.20;85.10;;;;;;1831983;77;21193;-71
2022/11/29 10:31:01;;;;;;;8.95;4.72;;;31.20;85.30;;;;;;1832826;78;21083;-74
2022/11/29 10:33:32;;;;;;;;;;;31.20;85.80;;;;;;1837622;78;21268;-72
2022/11/29 10:36:17;;;;;;;9.55;4.80;;;31.10;86.00;;;;;;1834966;78;20209;-73
2022/11/29 10:38:52;;;;;;;7.78;4.65;;;31.10;86.30;;;;;;1821590;78;21173;-73
2022/11/29 10:41:26;;;;;;;8.93;4.80;;;31.10;86.50;;;;;;1820638;78;21212;-71
2022/11/29 10:44:01;;;;;;;9.35;5.15;;;31.10;86.70;;;;;;1829303;77;21242;-73
2022/11/29 10:46:36;;;;;;;9.38;4.83;;;31.10;86.90;;;;;;1834841;76;21174;-72
2022/11/29 10:49:12;;;;;;;8.00;4.72;;;31.00;87.00;;;;;;1830250;77;21673;-71
2022/11/29 10:51:45;;;;;;;8.25;4.60;;;31.00;87.00;;;;;;1834807;78;21665;-72
2022/11/29 10:54:34;;;;;;;9.03;4.62;;;31.00;87.10;;;;;;1829531;78;21641;-72
2022/11/29 10:57:10;;;;;;;10.10;5.12;;;31.00;87.00;;;;;;1841274;77;21608;-72
2022/11/29 10:59:42;;;;;;;7.95;5.30;;;30.90;87.20;;;;;;1836939;76;22448;-72
2022/11/29 11:02:20;;;;;;;10.40;6.50;;;30.90;87.30;;;;;;1832733;78;21250;-72
2022/11/29 11:04:53;;;;;;;10.40;7.30;;;30.90;87.40;;;;;;1826110;78;21090;-72
2022/11/29 11:07:30;;;;;;;;;;;30.90;87.40;;;;;;1851514;76;21258;-73
2022/11/29 11:10:07;;;;;;;9.60;7.05;;;30.90;87.50;;;;;;1838618;76;20194;-72
2022/11/29 11:12:38;;;;;;;9.35;7.05;;;30.90;87.60;;;;;;1823217;77;21301;-74
2022/11/29 11:15:22;;;;;;;12.60;6.50;;;30.90;87.60;;;;;;1814087;76;21193;-72
2022/11/29 11:18:05;;;;;;;10.35;6.50;;;30.90;87.70;;;;;;1836084;76;21616;-73
2022/11/29 11:20:39;;;;;;;8.88;6.78;;;30.90;87.60;;;;;;1829839;78;21759;-73
2022/11/29 11:23:36;;;;;;;8.80;6.10;;;30.90;87.60;;;;;;1836723;78;21142;-72
2022/11/29 11:26:11;;;;;;;10.55;6.45;;;30.80;87.50;;;;;;1834077;78;21138;-72
2022/11/29 11:28:44;;;;;;;12.73;6.95;;;30.80;87.60;;;;;;1850248;77;21123;-72
2022/11/29 11:31:20;;;;;;;13.58;8.88;;;30.80;87.70;;;;;;1838953;77;21177;-72
2022/11/29 11:33:52;;;;;;;19.55;10.50;;;30.80;88.20;;;;;;1834772;78;21252;-72
2022/11/29 11:36:27;;;;;;;20.02;11.60;;;30.80;87.90;;;;;;1828702;78;21684;-72
2022/11/29 11:39:14;;;;;;;29.02;11.63;;;30.70;88.00;;;;;;1795980;78;21134;-73
2022/11/29 11:45:00;;;;;;;14.43;9.43;;;30.70;88.70;;;;;;1770589;79;21243;-72
2022/11/29 11:47:34;;;;;;;21.95;10.50;;;30.60;88.80;;;;;;1766789;80;21602;-73
2022/11/29 11:50:10;;;;;;;18.80;10.78;;;30.60;89.00;;;;;;1759463;79;21117;-72
2022/11/29 11:52:44;;;;;;;18.98;9.95;;;30.70;89.30;;;;;;1772832;80;21653;-72
2022/11/29 11:55:34;;;;;;;15.40;9.50;;;30.60;89.40;;;;;;1786468;78;21151;-70
2022/11/29 11:58:08;;;;;;;19.80;9.80;;;;;;;;;;1768843;80;21573;-82
2022/11/29 12:00:44;;;;;;;15.08;10.28;;;;;;;;;;1770078;79;21195;-83
2022/11/29 12:03:38;;;;;;;16.52;9.78;;;30.70;99.90;;;;;;1724552;80;21256;-83
2022/11/29 12:06:36;;;;;;;16.80;10.03;;;30.50;89.90;;;;;;1763024;78;21167;-84
2022/11/29 12:09:10;;;;;;;14.95;10.28;;;30.50;90.00;;;;;;1759969;80;21637;-83
2022/11/29 12:11:44;;;;;;;15.43;9.30;;;30.50;90.00;;;;;;1772070;80;21659;-82
2022/11/29 12:14:19;;;;;;;13.68;9.68;;;30.50;90.00;;;;;;1763329;80;21218;-83
2022/11/29 12:16:56;;;;;;;12.88;9.00;;;30.50;90.50;;;;;;1710056;83;21139;-83
2022/11/29 12:19:33;;;;;;;15.78;9.00;;;30.50;90.10;;;;;;1745732;80;21149;-82
2022/11/29 12:22:12;;;;;;;15.50;9.25;;;30.40;90.20;;;;;;1767811;80;21826;-83
2022/11/29 12:24:48;;;;;;;19.67;9.88;;;30.40;90.30;;;;;;1768370;80;21190;-83
2022/11/29 12:27:27;;;;;;;19.02;9.78;;;30.30;90.40;;;;;;1767386;80;21157;-83
2022/11/29 12:30:21;;;;;;;15.55;9.10;;;30.30;90.40;;;;;;1767009;80;21194;-84
2022/11/29 12:33:32;;;;;;;15.08;8.25;;;30.30;90.50;;;;;;1773935;80;21101;-84
2022/11/29 12:36:24;;;;;;;12.05;7.95;;;30.30;90.40;;;;;;1849567;77;21165;-84
2022/11/29 12:39:56;;;;;;;11.57;7.50;;;30.30;90.50;;;;;;1882102;74;21774;-81
2022/11/29 12:42:45;;;;;;;10.88;6.72;;;30.30;90.40;;;;;;1831008;75;21170;-83
2022/11/29 12:45:26;;;;;;;16.12;8.33;;;30.30;90.40;;;;;;1858993;76;21165;-83
2022/11/29 12:48:12;;;;;;;13.03;7.15;;;30.20;90.60;;;;;;1871721;76;21131;-83
2022/11/29 12:51:02;;;;;;;16.00;8.20;;;30.30;90.60;;;;;;1868112;75;21218;-83
2022/11/29 12:54:08;;;;;;;14.00;7.65;;;30.20;90.50;;;;;;1834949;76;21474;-83
2022/11/29 12:56:58;;;;;;;12.75;7.10;;;30.20;90.50;;;;;;1890506;74;21150;-83
2022/11/29 12:59:57;;;;;;;10.93;7.70;;;30.20;90.40;;;;;;1861697;76;21126;-84
2022/11/29 13:02:36;;;;;;;12.90;7.37;;;30.20;90.40;;;;;;1893904;74;21237;-83
2022/11/29 13:05:34;;;;;;;15.23;7.95;;;30.20;90.50;;;;;;1896160;74;21579;-82
2022/11/29 13:08:42;;;;;;;12.80;7.00;;;30.20;90.60;;;;;;1898590;74;21114;-83
2022/11/29 13:11:08;;;;;;;15.10;8.25;;;30.10;90.60;;;;;;1825460;77;21691;-84
2022/11/29 13:13:55;;;;;;;12.88;7.67;;;30.20;90.70;;;;;;1819383;77;21275;-82
2022/11/29 13:16:29;;;;;;;13.43;7.85;;;30.20;90.70;;;;;;1808928;77;21196;-83
2022/11/29 13:19:09;;;;;;;13.72;8.20;;;30.10;90.60;;;;;;1790578;78;21169;-83
2022/11/29 13:22:04;;;;;;;14.07;8.25;;;30.10;90.60;;;;;;1815938;77;21158;-83
2022/11/29 13:24:46;;;;;;;13.72;9.75;;;30.20;90.70;;;;;;1779322;78;21728;-82
2022/11/29 13:27:21;;;;;;;16.30;9.28;;;30.10;90.80;;;;;;1786326;78;21771;-83
2022/11/29 13:29:53;;;;;;;16.45;9.33;;;30.10;91.00;;;;;;1844325;77;21177;-83
2022/11/29 13:32:35;;;;;;;11.93;8.43;;;30.00;91.10;;;;;;1799631;78;21269;-84
2022/11/29 13:35:21;;;;;;;19.10;9.43;;;30.00;91.10;;;;;;1813695;77;21717;-82
2022/11/29 13:37:56;;;;;;;16.82;9.35;;;30.00;91.10;;;;;;1842873;77;21653;-83
2022/11/29 13:40:39;;;;;;;17.65;9.73;;;29.90;91.20;;;;;;1822737;77;21147;-83
2022/11/29 13:43:13;;;;;;;13.48;9.48;;;29.90;91.30;;;;;;1812113;77;21625;-83
2022/11/29 13:46:00;;;;;;;16.42;10.10;;;29.90;91.40;;;;;;1807104;77;21633;-83
2022/11/29 13:48:51;;;;;;;20.85;10.15;;;29.90;91.50;;;;;;1818931;77;21195;-83
2022/11/29 13:51:36;;;;;;;16.70;9.30;;;29.90;91.50;;;;;;1819876;77;21150;-83
2022/11/29 13:54:28;;;;;;;13.55;9.35;;;29.90;91.50;;;;;;1815205;77;21555;-82
2022/11/29 13:57:09;;;;;;;15.13;9.15;;;29.90;91.60;;;;;;1819951;76;21076;-82
2022/11/29 13:59:42;;;;;;;18.30;9.68;;;29.90;91.70;;;;;;1791226;78;21236;-82
2022/11/29 14:02:34;;;;;;;24.70;10.78;;;29.80;92.20;;;;;;1825589;77;21187;-84
2022/11/29 14:05:09;;;;;;;24.25;9.90;;;29.80;93.00;;;;;;1827037;77;21146;-83
2022/11/29 14:07:42;;;;;;;18.98;10.13;;;29.70;93.30;;;;;;1778941;78;21219;-82